createdAt,value
2023-01-28T00:02:13.376Z,8.77
2023-01-28T00:04:41.534Z,8.85
2023-01-28T00:07:09.736Z,8.30
2023-01-28T00:09:39.383Z,7.82
2023-01-28T00:12:07.888Z,7.30
2023-01-28T00:14:36.155Z,8.48
2023-01-28T00:17:06.171Z,8.40
2023-01-28T00:19:35.864Z,6.78
2023-01-28T00:22:04.495Z,7.63
2023-01-28T00:24:34.100Z,6.95
2023-01-28T00:27:02.327Z,7.13
2023-01-28T00:29:30.766Z,6.70
2023-01-28T00:31:59.009Z,7.55
2023-01-28T00:34:30.741Z,6.97
2023-01-28T00:37:00.412Z,6.65
2023-01-28T00:39:28.840Z,7.00
2023-01-28T00:41:57.395Z,6.80
2023-01-28T00:44:26.249Z,7.07
2023-01-28T00:46:54.427Z,7.60
2023-01-28T00:49:23.991Z,7.32
2023-01-28T00:51:52.229Z,7.10
2023-01-28T00:54:22.250Z,6.43
2023-01-28T00:56:50.421Z,6.65
2023-01-28T00:59:18.691Z,6.90
2023-01-28T01:01:48.664Z,7.68
2023-01-28T01:04:26.467Z,7.28
2023-01-28T01:06:54.857Z,6.68
2023-01-28T01:09:24.522Z,7.63
2023-01-28T01:11:52.752Z,7.88
2023-01-28T01:14:22.081Z,7.72
2023-01-28T01:16:50.544Z,7.60
2023-01-28T01:19:20.568Z,6.72
2023-01-28T01:21:50.812Z,8.40
2023-01-28T01:24:19.319Z,7.75
2023-01-28T01:26:49.665Z,7.53
2023-01-28T01:29:18.056Z,8.57
2023-01-28T01:31:46.282Z,7.78
2023-01-28T01:34:15.659Z,8.27
2023-01-28T01:36:44.186Z,7.50
2023-01-28T01:39:13.883Z,7.32
2023-01-28T01:41:42.380Z,7.03
2023-01-28T01:44:43.667Z,9.63
2023-01-28T01:47:14.227Z,8.07
2023-01-28T01:49:42.937Z,9.10
2023-01-28T01:52:15.539Z,8.48
2023-01-28T01:54:48.362Z,8.20
2023-01-28T01:57:23.578Z,8.55
2023-01-28T01:59:52.080Z,7.88
2023-01-28T02:02:22.063Z,8.25
2023-01-28T02:04:50.370Z,8.05
2023-01-28T02:07:20.891Z,9.10
2023-01-28T02:09:49.108Z,7.90
2023-01-28T02:12:22.730Z,7.72
2023-01-28T02:14:55.892Z,9.80
2023-01-28T02:17:25.956Z,7.97
2023-01-28T02:19:58.920Z,8.00
2023-01-28T02:23:01.786Z,9.05
2023-01-28T02:26:04.374Z,7.65
2023-01-28T02:28:42.029Z,7.93
2023-01-28T02:31:17.140Z,7.50
2023-01-28T02:33:51.870Z,9.20
2023-01-28T02:36:35.966Z,7.53
2023-01-28T02:39:10.804Z,7.20
2023-01-28T02:41:45.309Z,8.52
2023-01-28T02:44:15.150Z,7.60
2023-01-28T02:47:01.024Z,8.80
2023-01-28T02:49:33.189Z,6.38
2023-01-28T02:52:15.720Z,8.25
2023-01-28T02:54:51.284Z,7.40
2023-01-28T02:57:31.713Z,6.32
2023-01-28T03:00:08.688Z,7.05
2023-01-28T03:02:43.244Z,7.10
2023-01-28T03:05:20.542Z,7.25
2023-01-28T03:07:50.318Z,7.53
2023-01-28T03:10:21.156Z,8.20
2023-01-28T03:13:10.543Z,7.38
2023-01-28T03:16:00.688Z,7.25
2023-01-28T03:18:49.408Z,6.85
2023-01-28T03:21:39.253Z,7.35
2023-01-28T03:24:31.258Z,7.70
2023-01-28T03:27:29.614Z,8.20
2023-01-28T03:30:27.734Z,7.10
2023-01-28T03:33:16.406Z,7.03
2023-01-28T03:36:03.543Z,7.18
2023-01-28T03:38:34.128Z,7.32
2023-01-28T03:41:04.020Z,7.15
2023-01-28T03:43:33.720Z,6.88
2023-01-28T03:46:02.885Z,7.80
2023-01-28T03:48:32.523Z,7.63
2023-01-28T03:51:03.957Z,8.15
2023-01-28T03:53:32.108Z,7.88
2023-01-28T03:56:00.577Z,8.65
2023-01-28T03:58:46.633Z,8.38
2023-01-28T04:01:16.267Z,8.60
2023-01-28T04:03:46.645Z,8.25
2023-01-28T04:06:18.911Z,8.90
2023-01-28T04:08:59.407Z,8.25
2023-01-28T04:11:28.174Z,9.00
2023-01-28T04:13:57.941Z,7.57
2023-01-28T04:16:27.418Z,9.80
2023-01-28T04:18:58.004Z,9.10
2023-01-28T04:21:26.600Z,8.68
2023-01-28T04:23:54.876Z,8.18
2023-01-28T04:26:23.204Z,7.80
2023-01-28T04:28:51.366Z,7.55
2023-01-28T04:31:19.603Z,7.28
2023-01-28T04:34:08.025Z,7.55
2023-01-28T04:36:52.577Z,8.20
2023-01-28T04:39:31.232Z,7.15
2023-01-28T04:42:18.350Z,8.15
2023-01-28T04:45:08.757Z,7.40
2023-01-28T04:47:50.371Z,7.35
2023-01-28T04:50:38.351Z,7.25
2023-01-28T04:53:14.499Z,8.52
2023-01-28T04:56:09.012Z,7.90
2023-01-28T04:58:38.240Z,7.68
2023-01-28T05:01:11.075Z,8.50
2023-01-28T05:03:39.364Z,7.95
2023-01-28T05:06:10.433Z,7.70
2023-01-28T05:08:47.054Z,7.75
2023-01-28T05:11:16.902Z,9.35
2023-01-28T05:13:47.085Z,8.30
2023-01-28T05:16:15.498Z,9.07
2023-01-28T05:18:44.843Z,8.40
2023-01-28T05:21:17.596Z,7.50
2023-01-28T05:23:47.923Z,8.15
2023-01-28T05:26:16.204Z,7.78
2023-01-28T05:28:45.620Z,9.00
2023-01-28T05:31:14.017Z,12.20
2023-01-28T05:33:42.378Z,8.98
2023-01-28T05:36:13.080Z,9.55
2023-01-28T05:38:43.681Z,8.63
2023-01-28T05:41:11.878Z,8.35
2023-01-28T05:43:41.544Z,10.20
2023-01-28T05:46:30.145Z,8.80
2023-01-28T05:49:19.201Z,9.43
2023-01-28T05:52:07.757Z,7.80
2023-01-28T05:54:37.572Z,7.50
2023-01-28T05:57:05.939Z,8.95
2023-01-28T05:59:34.950Z,7.88
2023-01-28T06:02:03.437Z,8.40
2023-01-28T06:04:31.643Z,8.80
2023-01-28T06:07:01.116Z,8.85
2023-01-28T06:09:29.482Z,8.00
2023-01-28T06:11:59.164Z,11.20
2023-01-28T06:14:27.567Z,8.50
2023-01-28T06:17:25.024Z,9.02
2023-01-28T06:20:04.368Z,11.63
2023-01-28T06:22:34.004Z,10.40
2023-01-28T06:25:02.674Z,11.73
2023-01-28T06:27:32.517Z,11.57
2023-01-28T06:30:00.852Z,12.52
2023-01-28T06:32:29.423Z,10.23
2023-01-28T06:34:57.820Z,10.93
2023-01-28T06:37:26.420Z,9.50
2023-01-28T06:39:54.596Z,10.00
2023-01-28T06:42:23.168Z,10.90
2023-01-28T06:44:52.667Z,9.43
2023-01-28T06:47:21.049Z,10.55
2023-01-28T06:49:49.137Z,9.25
2023-01-28T06:52:17.356Z,11.20
2023-01-28T06:54:45.716Z,10.00
2023-01-28T06:57:13.920Z,11.43
2023-01-28T06:59:42.056Z,10.45
2023-01-28T07:02:13.135Z,11.45
2023-01-28T07:04:41.277Z,11.98
2023-01-28T07:07:09.471Z,10.85
2023-01-28T07:09:37.648Z,10.63
2023-01-28T07:12:06.094Z,11.18
2023-01-28T07:14:34.335Z,10.95
2023-01-28T07:17:02.548Z,11.30
2023-01-28T07:19:32.189Z,10.27
2023-01-28T07:22:03.057Z,12.20
2023-01-28T07:24:31.760Z,11.05
2023-01-28T07:26:59.951Z,10.38
2023-01-28T07:29:28.160Z,11.30
2023-01-28T07:31:56.338Z,10.75
2023-01-28T07:34:24.986Z,10.18
2023-01-28T07:36:56.308Z,12.40
2023-01-28T07:39:25.695Z,10.88
2023-01-28T07:41:53.953Z,12.13
2023-01-28T07:44:38.756Z,12.05
2023-01-28T07:47:08.023Z,11.15
2023-01-28T07:49:36.204Z,9.73
2023-01-28T07:52:06.164Z,11.48
2023-01-28T07:54:34.783Z,11.45
2023-01-28T07:57:03.190Z,11.02
2023-01-28T07:59:31.346Z,11.10
2023-01-28T08:01:59.529Z,11.27
2023-01-28T08:04:27.983Z,12.20
2023-01-28T08:06:57.028Z,12.90
2023-01-28T08:09:26.737Z,12.75
2023-01-28T08:11:54.883Z,11.10
2023-01-28T08:14:23.111Z,11.55
2023-01-28T08:16:51.220Z,12.40
2023-01-28T08:19:21.543Z,11.50
2023-01-28T08:21:49.735Z,13.32
2023-01-28T08:24:18.084Z,11.00
2023-01-28T08:26:49.476Z,13.38
2023-01-28T08:29:17.661Z,13.45
2023-01-28T08:31:45.840Z,11.65
2023-01-28T08:34:14.121Z,11.15
2023-01-28T08:36:42.299Z,14.10
2023-01-28T08:39:10.500Z,11.77
2023-01-28T08:41:38.649Z,11.57
2023-01-28T08:44:08.357Z,13.00
2023-01-28T08:46:36.571Z,11.40
2023-01-28T08:49:04.864Z,10.77
2023-01-28T08:51:33.076Z,10.98
2023-01-28T08:54:02.267Z,9.95
2023-01-28T08:56:30.557Z,8.50
2023-01-28T08:58:58.748Z,11.52
2023-01-28T09:01:30.502Z,10.57
2023-01-28T09:03:58.790Z,10.77
2023-01-28T09:06:26.961Z,9.70
2023-01-28T09:08:58.189Z,12.60
2023-01-28T09:11:26.667Z,9.45
2023-01-28T09:13:54.892Z,10.40
2023-01-28T09:16:23.026Z,11.13
2023-01-28T09:18:54.033Z,12.13
2023-01-28T09:21:22.620Z,11.25
2023-01-28T09:23:50.825Z,10.80
2023-01-28T09:26:18.978Z,11.85
2023-01-28T09:28:48.738Z,9.57
2023-01-28T09:31:17.520Z,8.88
2023-01-28T09:33:45.781Z,9.38
2023-01-28T09:36:15.325Z,9.38
2023-01-28T09:38:43.597Z,10.95
2023-01-28T09:41:30.572Z,11.80
2023-01-28T09:44:06.585Z,10.30
2023-01-28T09:46:37.743Z,10.85
2023-01-28T09:49:16.188Z,11.38
2023-01-28T09:51:50.152Z,10.55
2023-01-28T09:54:31.392Z,11.70
2023-01-28T09:57:07.224Z,11.18
2023-01-28T09:59:36.976Z,11.05
2023-01-28T10:02:28.973Z,10.20
2023-01-28T10:05:04.863Z,12.90
2023-01-28T10:07:40.986Z,13.20
2023-01-28T10:10:15.001Z,14.30
2023-01-28T10:13:02.566Z,13.15
2023-01-28T10:15:53.831Z,12.95
2023-01-28T10:18:32.211Z,12.48
2023-01-28T10:21:07.567Z,13.88
2023-01-28T10:23:47.689Z,12.48
2023-01-28T10:26:25.543Z,11.25
2023-01-28T10:28:57.491Z,11.77
2023-01-28T10:31:33.502Z,12.98
2023-01-28T10:34:04.599Z,13.85
2023-01-28T10:36:32.908Z,12.75
2023-01-28T10:39:02.501Z,14.05
2023-01-28T10:41:30.749Z,13.25
2023-01-28T10:43:59.321Z,13.18
2023-01-28T10:46:31.293Z,16.35
2023-01-28T10:49:06.326Z,14.38
2023-01-28T10:51:37.660Z,12.23
2023-01-28T10:54:20.370Z,12.60
2023-01-28T10:56:50.264Z,11.75
2023-01-28T10:59:26.867Z,12.85
2023-01-28T11:01:56.579Z,10.50
2023-01-28T11:04:27.717Z,11.10
2023-01-28T11:06:58.227Z,11.75
2023-01-28T11:09:30.882Z,11.20
2023-01-28T11:11:59.697Z,11.68
2023-01-28T11:14:28.713Z,10.93
2023-01-28T11:16:59.634Z,11.00
2023-01-28T11:19:37.461Z,12.93
2023-01-28T11:22:05.739Z,10.48
2023-01-28T11:24:35.847Z,9.93
2023-01-28T11:27:16.317Z,10.95
2023-01-28T11:29:44.999Z,9.93
2023-01-28T11:32:22.267Z,10.88
2023-01-28T11:34:52.925Z,9.88
2023-01-28T11:37:23.946Z,11.07
2023-01-28T11:40:04.091Z,10.65
2023-01-28T11:42:33.073Z,10.25
2023-01-28T11:45:01.306Z,9.35
2023-01-28T11:47:52.252Z,10.52
2023-01-28T11:50:32.700Z,10.98
2023-01-28T11:53:16.753Z,10.38
2023-01-28T11:55:59.669Z,10.20
2023-01-28T11:58:39.225Z,11.00
2023-01-28T12:01:13.745Z,11.68
2023-01-28T12:04:02.903Z,11.45
2023-01-28T12:06:44.142Z,9.68
2023-01-28T12:09:22.412Z,9.93
2023-01-28T12:12:13.671Z,9.82
2023-01-28T12:15:06.094Z,11.57
2023-01-28T12:17:48.663Z,11.65
2023-01-28T12:20:23.656Z,10.35
2023-01-28T12:23:06.619Z,12.10
2023-01-28T12:25:51.874Z,9.27
2023-01-28T12:28:36.719Z,9.68
2023-01-28T12:31:17.827Z,9.80
2023-01-28T12:34:05.819Z,10.32
2023-01-28T12:36:48.434Z,10.88
2023-01-28T12:39:32.443Z,10.77
2023-01-28T12:42:07.310Z,9.90
2023-01-28T12:44:41.727Z,10.90
2023-01-28T12:47:14.522Z,11.70
2023-01-28T12:49:49.737Z,12.40
2023-01-28T12:52:24.431Z,10.32
2023-01-28T12:54:59.305Z,11.07
2023-01-28T12:57:29.988Z,12.40
2023-01-28T13:00:15.178Z,10.23
2023-01-28T13:02:51.127Z,10.90
2023-01-28T13:05:24.147Z,11.15
2023-01-28T13:07:57.980Z,10.38
2023-01-28T13:10:30.790Z,10.75
2023-01-28T13:13:00.203Z,11.18
2023-01-28T13:15:30.697Z,11.15
2023-01-28T13:18:00.600Z,10.00
2023-01-28T13:20:37.889Z,11.05
2023-01-28T13:23:22.109Z,11.60
2023-01-28T13:25:51.801Z,11.70
2023-01-28T13:28:31.399Z,11.55
2023-01-28T13:31:06.918Z,11.02
2023-01-28T13:33:38.369Z,10.63
2023-01-28T13:36:21.778Z,11.75
2023-01-28T13:39:00.947Z,9.57
2023-01-28T13:41:39.398Z,8.63
2023-01-28T13:44:19.693Z,10.75
2023-01-28T13:46:49.443Z,11.23
2023-01-28T13:49:22.430Z,11.88
2023-01-28T13:52:00.938Z,10.70
2023-01-28T13:54:30.994Z,10.13
2023-01-28T13:57:21.824Z,10.05
2023-01-28T13:59:56.861Z,9.68
2023-01-28T14:02:39.648Z,9.48
2023-01-28T14:05:55.332Z,10.93
2023-01-28T14:08:58.422Z,10.63
2023-01-28T14:11:52.417Z,9.95
2023-01-28T14:14:40.928Z,10.20
2023-01-28T14:17:21.529Z,9.98
2023-01-28T14:19:54.130Z,10.43
2023-01-28T14:22:22.551Z,8.93
2023-01-28T14:24:51.172Z,9.10
2023-01-28T14:27:23.770Z,10.45
2023-01-28T14:30:05.415Z,9.40
2023-01-28T14:32:35.343Z,9.60
2023-01-28T14:35:10.944Z,10.05
2023-01-28T14:37:39.703Z,8.98
2023-01-28T14:40:14.732Z,9.27
2023-01-28T14:42:46.115Z,9.45
2023-01-28T14:45:35.739Z,9.20
2023-01-28T14:48:26.110Z,9.77
2023-01-28T14:51:26.222Z,10.57
2023-01-28T14:54:18.717Z,9.13
2023-01-28T14:57:06.295Z,11.13
2023-01-28T14:59:47.239Z,10.13
2023-01-28T15:02:20.877Z,9.65
2023-01-28T15:04:49.798Z,12.07
2023-01-28T15:07:21.947Z,9.82
2023-01-28T15:10:01.763Z,10.43
2023-01-28T15:12:33.936Z,11.18
2023-01-28T15:15:10.265Z,9.27
2023-01-28T15:17:38.878Z,9.73
2023-01-28T15:20:09.522Z,8.80
2023-01-28T15:22:43.399Z,9.75
2023-01-28T15:25:18.420Z,9.00
2023-01-28T15:27:46.847Z,9.18
2023-01-28T15:30:23.633Z,7.65
2023-01-28T15:32:59.817Z,9.65
2023-01-28T15:35:28.844Z,9.32
2023-01-28T15:37:58.804Z,7.85
2023-01-28T15:40:27.753Z,7.97
2023-01-28T15:42:58.850Z,7.43
2023-01-28T15:45:29.654Z,10.02
2023-01-28T15:48:06.510Z,9.55
2023-01-28T15:50:34.734Z,8.23
2023-01-28T15:53:11.140Z,9.52
2023-01-28T15:55:40.785Z,9.20
2023-01-28T15:58:27.156Z,9.07
2023-01-28T16:01:05.727Z,10.82
2023-01-28T16:03:34.417Z,9.43
2023-01-28T16:06:08.547Z,10.57
2023-01-28T16:08:43.478Z,9.70
2023-01-28T16:11:12.108Z,9.57
2023-01-28T16:13:44.967Z,9.68
2023-01-28T16:16:13.937Z,9.95
2023-01-28T16:18:47.480Z,10.05
2023-01-28T16:21:23.277Z,10.60
2023-01-28T16:23:54.820Z,9.80
2023-01-28T16:26:24.347Z,10.85
2023-01-28T16:28:52.567Z,10.32
2023-01-28T16:31:21.460Z,10.13
2023-01-28T16:33:49.713Z,9.35
2023-01-28T16:36:19.449Z,8.85
2023-01-28T16:38:47.804Z,10.45
2023-01-28T16:41:27.845Z,10.57
2023-01-28T16:43:55.993Z,10.30
2023-01-28T16:46:27.967Z,10.50
2023-01-28T16:48:56.818Z,10.35
2023-01-28T16:51:25.236Z,10.50
2023-01-28T16:53:53.783Z,11.52
2023-01-28T16:59:16.029Z,8.82
2023-01-28T17:01:44.792Z,9.70
2023-01-28T17:04:13.522Z,9.98
2023-01-28T17:06:43.372Z,11.30
2023-01-28T17:09:12.674Z,8.90
2023-01-28T17:11:42.756Z,9.57
2023-01-28T17:14:11.753Z,14.32
2023-01-28T17:16:39.961Z,9.40
2023-01-28T17:19:08.285Z,10.00
2023-01-28T17:21:36.525Z,10.90
2023-01-28T17:24:05.270Z,9.80
2023-01-28T17:26:35.397Z,10.07
2023-01-28T17:29:05.744Z,8.57
2023-01-28T17:31:34.122Z,9.65
2023-01-28T17:34:02.622Z,9.55
2023-01-28T17:36:30.817Z,9.90
2023-01-28T17:38:59.013Z,10.60
2023-01-28T17:41:27.199Z,13.00
2023-01-28T17:43:57.342Z,10.20
2023-01-28T17:46:28.045Z,11.50
2023-01-28T17:48:56.232Z,9.75
2023-01-28T17:51:25.474Z,10.02
2023-01-28T17:53:54.632Z,11.10
2023-01-28T17:56:25.784Z,8.93
2023-01-28T17:58:55.877Z,10.40
2023-01-28T18:01:27.405Z,9.85
2023-01-28T18:03:56.677Z,10.45
2023-01-28T18:06:25.011Z,10.63
2023-01-28T18:08:53.364Z,11.60
2023-01-28T18:11:21.672Z,10.50
2023-01-28T18:13:50.644Z,10.68
2023-01-28T18:16:21.553Z,11.40
2023-01-28T18:18:51.375Z,10.20
2023-01-28T18:21:23.559Z,10.48
2023-01-28T18:23:55.328Z,9.52
2023-01-28T18:26:23.917Z,10.68
2023-01-28T18:28:52.827Z,10.65
2023-01-28T18:31:21.406Z,9.60
2023-01-28T18:33:51.379Z,8.73
2023-01-28T18:36:21.229Z,9.68
2023-01-28T18:38:49.640Z,11.90
2023-01-28T18:41:17.882Z,10.82
2023-01-28T18:43:46.376Z,10.07
2023-01-28T18:46:17.851Z,10.60
2023-01-28T18:48:46.076Z,11.60
2023-01-28T18:51:29.378Z,10.63
2023-01-28T18:53:59.989Z,9.80
2023-01-28T18:56:29.078Z,10.38
2023-01-28T18:58:58.148Z,10.18
2023-01-28T19:01:27.115Z,10.27
2023-01-28T19:03:56.013Z,10.85
2023-01-28T19:06:27.928Z,10.10
2023-01-28T19:08:58.462Z,10.52
2023-01-28T19:11:28.587Z,11.05
2023-01-28T19:13:58.326Z,11.95
2023-01-28T19:16:28.702Z,12.35
2023-01-28T19:19:00.787Z,11.75
2023-01-28T19:21:32.124Z,10.88
2023-01-28T19:24:02.643Z,12.70
2023-01-28T19:26:32.355Z,13.52
2023-01-28T19:29:03.004Z,13.38
2023-01-28T19:31:31.631Z,16.15
2023-01-28T19:34:03.017Z,10.98
2023-01-28T19:36:34.831Z,14.60
2023-01-28T19:39:07.436Z,13.60
2023-01-28T19:41:37.892Z,11.75
2023-01-28T19:44:08.126Z,11.35
2023-01-28T19:46:38.552Z,11.85
2023-01-28T19:49:10.537Z,9.85
2023-01-28T19:51:40.198Z,10.52
2023-01-28T19:54:10.042Z,11.38
2023-01-28T19:56:38.685Z,12.15
2023-01-28T19:59:09.153Z,10.40
2023-01-28T20:01:37.848Z,12.10
2023-01-28T20:04:06.113Z,10.55
2023-01-28T20:06:36.254Z,9.60
2023-01-28T20:09:09.132Z,10.77
2023-01-28T20:11:39.448Z,10.70
2023-01-28T20:14:08.042Z,11.10
2023-01-28T20:16:36.788Z,12.75
2023-01-28T20:19:08.312Z,10.25
2023-01-28T20:21:38.706Z,10.50
2023-01-28T20:24:16.402Z,10.13
2023-01-28T20:26:45.666Z,10.60
2023-01-28T20:29:18.761Z,11.75
2023-01-28T20:32:00.867Z,9.48
2023-01-28T20:34:35.963Z,10.18
2023-01-28T20:37:06.628Z,12.32
2023-01-28T20:39:36.208Z,10.95
2023-01-28T20:42:07.516Z,10.82
2023-01-28T20:44:36.207Z,11.07
2023-01-28T20:47:05.490Z,11.88
2023-01-28T20:49:34.943Z,11.57
2023-01-28T20:52:04.847Z,10.45
2023-01-28T20:54:33.178Z,11.65
2023-01-28T20:57:02.754Z,11.27
2023-01-28T20:59:32.353Z,10.07
2023-01-28T21:02:00.853Z,10.73
2023-01-28T21:04:29.204Z,10.73
2023-01-28T21:06:57.936Z,11.40
2023-01-28T21:09:27.902Z,11.88
2023-01-28T21:11:56.109Z,11.10
2023-01-28T21:14:25.832Z,11.15
2023-01-28T21:16:54.076Z,12.20
2023-01-28T21:19:22.236Z,12.73
2023-01-28T21:21:50.388Z,10.93
2023-01-28T21:24:18.594Z,11.75
2023-01-28T21:26:46.840Z,12.45
2023-01-28T21:29:15.092Z,11.10
2023-01-28T21:31:44.744Z,10.52
2023-01-28T21:34:14.503Z,12.25
2023-01-28T21:36:44.283Z,12.02
2023-01-28T21:39:12.886Z,11.15
2023-01-28T21:41:41.175Z,12.93
2023-01-28T21:44:12.917Z,12.32
2023-01-28T21:46:41.512Z,12.95
2023-01-28T21:49:12.611Z,12.57
2023-01-28T21:51:46.110Z,11.50
2023-01-28T21:54:16.370Z,11.15
2023-01-28T21:56:45.130Z,11.50
2023-01-28T21:59:28.188Z,11.73
2023-01-28T22:01:57.729Z,9.77
2023-01-28T22:04:28.723Z,11.95
2023-01-28T22:06:57.471Z,12.07
2023-01-28T22:09:26.050Z,14.20
2023-01-28T22:11:54.341Z,11.98
2023-01-28T22:14:22.736Z,10.60
2023-01-28T22:16:50.906Z,11.73
2023-01-28T22:19:19.609Z,9.55
2023-01-28T22:21:49.618Z,11.00
2023-01-28T22:24:19.720Z,10.55
2023-01-28T22:26:49.016Z,9.85
2023-01-28T22:29:19.272Z,9.85
2023-01-28T22:31:48.362Z,10.40
2023-01-28T22:34:16.957Z,10.68
2023-01-28T22:36:46.204Z,10.82
2023-01-28T22:39:17.624Z,10.35
2023-01-28T22:41:46.312Z,9.50
2023-01-28T22:44:14.537Z,9.85
2023-01-28T22:46:42.970Z,10.60
2023-01-28T22:49:12.012Z,10.30
2023-01-28T22:51:40.278Z,10.35
2023-01-28T22:54:09.133Z,10.88
2023-01-28T22:56:39.340Z,11.50
2023-01-28T22:59:07.715Z,10.02
2023-01-28T23:01:36.840Z,9.70
2023-01-28T23:04:05.109Z,11.05
2023-01-28T23:06:33.754Z,11.02
2023-01-28T23:09:01.916Z,9.75
2023-01-28T23:11:30.123Z,10.80
2023-01-28T23:14:19.785Z,11.23
2023-01-28T23:17:06.189Z,9.68
2023-01-28T23:19:52.425Z,9.00
2023-01-28T23:22:41.960Z,9.27
2023-01-28T23:25:10.964Z,10.35
2023-01-28T23:27:40.253Z,10.13
2023-01-28T23:30:12.143Z,11.00
2023-01-28T23:32:43.640Z,10.50
2023-01-28T23:35:13.280Z,9.07
2023-01-28T23:37:41.610Z,10.05
2023-01-28T23:40:10.929Z,9.50
2023-01-28T23:42:39.424Z,10.82
2023-01-28T23:45:10.447Z,9.65
2023-01-28T23:47:38.656Z,10.43
2023-01-28T23:50:07.671Z,11.05
2023-01-28T23:52:36.130Z,10.98
2023-01-28T23:55:04.685Z,10.82
2023-01-28T23:57:32.923Z,9.82
